createdAt,value
2018-01-15T00:01:09.278Z,23.10
2018-01-15T00:03:39.099Z,26.73
2018-01-15T00:06:08.388Z,20.63
2018-01-15T00:08:37.675Z,22.20
2018-01-15T00:11:06.945Z,24.60
2018-01-15T00:13:37.122Z,22.47
2018-01-15T00:16:06.384Z,24.93
2018-01-15T00:18:35.917Z,22.47
2018-01-15T00:21:05.222Z,22.67
2018-01-15T00:23:34.622Z,22.17
2018-01-15T00:26:03.885Z,19.77
2018-01-15T00:28:34.039Z,21.00
2018-01-15T00:31:03.308Z,21.73
2018-01-15T00:33:33.356Z,20.40
2018-01-15T00:36:02.674Z,25.00
2018-01-15T00:38:31.952Z,19.20
2018-01-15T00:41:01.235Z,20.23
2018-01-15T00:43:30.538Z,21.60
2018-01-15T00:45:59.973Z,21.47
2018-01-15T00:48:29.254Z,20.80
2018-01-15T00:50:58.520Z,19.87
2018-01-15T00:53:28.553Z,22.30
2018-01-15T00:55:58.580Z,24.13
2018-01-15T00:58:28.264Z,21.33
2018-01-15T01:00:58.305Z,20.83
2018-01-15T01:03:27.572Z,23.57
2018-01-15T01:05:56.828Z,23.03
2018-01-15T01:08:26.121Z,20.03
2018-01-15T01:10:55.384Z,19.87
2018-01-15T01:13:25.438Z,22.77
2018-01-15T01:15:54.719Z,22.20
2018-01-15T01:18:24.129Z,20.03
2018-01-15T01:20:53.751Z,22.10
2018-01-15T01:23:23.012Z,23.47
2018-01-15T01:25:53.058Z,23.57
2018-01-15T01:28:22.326Z,21.73
2018-01-15T01:30:53.143Z,21.00
2018-01-15T01:33:22.487Z,19.77
2018-01-15T01:35:51.770Z,19.57
2018-01-15T01:38:21.801Z,23.87
2018-01-15T01:40:51.847Z,19.40
2018-01-15T01:43:21.119Z,20.37
2018-01-15T01:45:51.148Z,20.50
2018-01-15T01:48:20.426Z,21.53
2018-01-15T01:50:50.474Z,21.60
2018-01-15T01:53:19.744Z,18.87
2018-01-15T01:55:49.778Z,21.80
2018-01-15T01:58:19.817Z,20.77
2018-01-15T02:00:49.078Z,22.83
2018-01-15T02:03:19.123Z,21.90
2018-01-15T02:05:48.390Z,21.73
2018-01-15T02:08:17.669Z,22.27
2018-01-15T02:10:46.951Z,20.27
2018-01-15T02:13:16.207Z,20.77
2018-01-15T02:15:46.252Z,20.13
2018-01-15T02:18:15.508Z,21.17
2018-01-15T02:20:45.570Z,18.27
2018-01-15T02:23:14.586Z,20.97
2018-01-15T02:25:43.859Z,18.77
2018-01-15T02:28:13.178Z,18.97
2018-01-15T02:30:42.511Z,17.67
2018-01-15T02:33:11.786Z,22.30
2018-01-15T02:35:41.054Z,19.63
2018-01-15T02:38:10.346Z,20.43
2018-01-15T02:40:40.384Z,20.50
2018-01-15T02:43:09.706Z,23.77
2018-01-15T02:45:39.042Z,20.70
2018-01-15T02:48:08.500Z,21.23
2018-01-15T02:50:37.791Z,21.97
2018-01-15T02:53:07.057Z,19.57
2018-01-15T02:55:36.552Z,20.33
2018-01-15T02:58:06.066Z,19.07
2018-01-15T03:00:35.454Z,21.77
2018-01-15T03:03:04.776Z,21.93
2018-01-15T03:05:34.857Z,23.13
2018-01-15T03:08:04.108Z,23.00
2018-01-15T03:10:33.384Z,21.17
2018-01-15T03:13:04.188Z,18.87
2018-01-15T03:15:33.832Z,20.50
2018-01-15T03:18:03.889Z,20.50
2018-01-15T03:20:33.302Z,21.77
2018-01-15T03:23:02.556Z,26.03
2018-01-15T03:25:32.576Z,19.47
2018-01-15T03:28:02.738Z,22.93
2018-01-15T03:30:32.013Z,19.43
2018-01-15T03:33:01.342Z,21.60
2018-01-15T03:35:30.616Z,19.97
2018-01-15T03:37:59.932Z,19.13
2018-01-15T03:40:29.195Z,18.67
2018-01-15T03:42:59.224Z,21.27
2018-01-15T03:45:32.200Z,23.30
2018-01-15T03:48:02.303Z,23.87
2018-01-15T03:50:32.340Z,21.77
2018-01-15T03:53:02.368Z,20.87
2018-01-15T03:55:34.408Z,23.03
2018-01-15T03:58:03.869Z,22.43
2018-01-15T04:00:32.902Z,25.77
2018-01-15T04:03:02.168Z,19.87
2018-01-15T04:05:31.565Z,19.17
2018-01-15T04:08:00.838Z,22.13
2018-01-15T04:10:30.952Z,21.20
2018-01-15T04:13:00.422Z,24.33
2018-01-15T04:15:29.702Z,21.17
2018-01-15T04:17:58.974Z,21.77
2018-01-15T04:20:29.001Z,22.23
2018-01-15T04:22:58.286Z,24.07
2018-01-15T04:25:27.559Z,20.97
2018-01-15T04:27:56.820Z,20.97
2018-01-15T04:30:26.080Z,21.63
2018-01-15T04:32:55.356Z,21.73
2018-01-15T04:35:25.393Z,22.63
2018-01-15T04:37:55.577Z,21.03
2018-01-15T04:40:24.841Z,24.40
2018-01-15T04:42:54.155Z,23.30
2018-01-15T04:45:23.420Z,20.43
2018-01-15T04:47:53.521Z,22.47
2018-01-15T04:50:22.757Z,22.10
2018-01-15T04:52:52.204Z,24.20
2018-01-15T04:55:21.479Z,26.80
2018-01-15T04:57:50.771Z,22.90
2018-01-15T05:00:20.128Z,21.50
2018-01-15T05:02:50.160Z,23.03
2018-01-15T05:05:20.210Z,23.77
2018-01-15T05:07:49.518Z,27.63
2018-01-15T05:10:18.919Z,24.97
2018-01-15T05:12:48.205Z,22.77
2018-01-15T05:15:17.687Z,22.60
2018-01-15T05:17:47.716Z,24.67
2018-01-15T05:20:16.268Z,25.30
2018-01-15T05:22:45.524Z,23.77
2018-01-15T05:25:14.818Z,26.90
2018-01-15T05:27:44.088Z,23.33
2018-01-15T05:30:14.150Z,26.87
2018-01-15T05:32:43.828Z,27.20
2018-01-15T05:35:13.123Z,24.17
2018-01-15T05:37:43.144Z,25.63
2018-01-15T05:40:12.565Z,25.33
2018-01-15T05:42:41.832Z,24.53
2018-01-15T05:45:11.886Z,25.70
2018-01-15T05:47:41.179Z,25.60
2018-01-15T05:50:10.461Z,25.87
2018-01-15T05:52:40.502Z,25.93
2018-01-15T05:55:09.787Z,27.10
2018-01-15T05:57:39.078Z,27.27
2018-01-15T06:00:08.883Z,26.87
2018-01-15T06:02:38.252Z,25.90
2018-01-15T06:05:07.721Z,30.23
2018-01-15T06:07:36.980Z,26.20
2018-01-15T06:10:06.250Z,28.83
2018-01-15T06:12:35.735Z,29.37
2018-01-15T06:15:05.162Z,27.27
2018-01-15T06:17:34.438Z,29.10
2018-01-15T06:20:03.732Z,28.77
2018-01-15T06:22:33.083Z,26.40
2018-01-15T06:25:02.350Z,28.77
2018-01-15T06:27:31.637Z,26.70
2018-01-15T06:30:00.961Z,26.13
2018-01-15T06:32:30.240Z,25.70
2018-01-15T06:34:59.548Z,24.83
2018-01-15T06:37:29.051Z,25.57
2018-01-15T06:39:58.328Z,27.73
2018-01-15T06:42:27.813Z,26.10
2018-01-15T06:44:57.852Z,26.23
2018-01-15T06:47:27.130Z,22.97
2018-01-15T06:49:57.166Z,27.90
2018-01-15T06:52:27.099Z,24.37
2018-01-15T06:54:56.375Z,26.77
2018-01-15T06:57:26.428Z,26.37
2018-01-15T06:59:55.698Z,25.63
2018-01-15T07:02:25.749Z,27.23
2018-01-15T07:04:55.040Z,28.47
2018-01-15T07:07:24.300Z,28.90
2018-01-15T07:09:54.337Z,28.63
2018-01-15T07:12:23.610Z,27.63
2018-01-15T07:14:52.890Z,28.57
2018-01-15T07:17:21.931Z,28.03
2018-01-15T07:19:51.364Z,30.13
2018-01-15T07:22:20.882Z,30.83
2018-01-15T07:24:50.153Z,26.03
2018-01-15T07:27:19.425Z,29.13
2018-01-15T07:29:49.472Z,27.73
2018-01-15T07:32:18.767Z,30.43
2018-01-15T07:34:48.066Z,26.30
2018-01-15T07:37:18.097Z,27.30
2018-01-15T07:39:47.364Z,26.93
2018-01-15T07:42:17.484Z,29.13
2018-01-15T07:44:47.528Z,25.60
2018-01-15T07:47:16.806Z,26.43
2018-01-15T07:49:46.878Z,24.47
2018-01-15T07:52:16.272Z,26.97
2018-01-15T07:54:45.848Z,25.70
2018-01-15T07:57:15.124Z,33.33
2018-01-15T07:59:45.212Z,25.33
2018-01-15T08:02:14.528Z,31.40
2018-01-15T08:04:44.208Z,29.80
2018-01-15T08:07:13.498Z,26.73
2018-01-15T08:09:42.770Z,26.63
2018-01-15T08:12:12.843Z,28.97
2018-01-15T08:14:41.872Z,29.90
2018-01-15T08:17:11.202Z,26.20
2018-01-15T08:19:40.489Z,29.73
2018-01-15T08:22:10.538Z,27.40
2018-01-15T08:24:39.833Z,27.77
2018-01-15T08:27:08.920Z,24.50
2018-01-15T08:29:38.208Z,26.10
2018-01-15T08:32:07.496Z,27.83
2018-01-15T08:34:37.025Z,26.67
2018-01-15T08:37:06.296Z,30.00
2018-01-15T08:39:36.425Z,28.47
2018-01-15T08:42:06.565Z,27.50
2018-01-15T08:44:35.833Z,26.27
2018-01-15T08:47:06.157Z,29.60
2018-01-15T08:49:36.190Z,26.23
2018-01-15T08:52:06.243Z,27.80
2018-01-15T08:54:35.501Z,27.97
2018-01-15T08:57:05.562Z,27.00
2018-01-15T08:59:34.816Z,25.53
2018-01-15T09:02:05.330Z,28.33
2018-01-15T09:04:34.893Z,25.70
2018-01-15T09:07:04.905Z,26.27
2018-01-15T09:09:34.184Z,27.33
2018-01-15T09:12:04.662Z,25.00
2018-01-15T09:14:34.015Z,26.47
2018-01-15T09:17:04.067Z,23.87
2018-01-15T09:19:33.336Z,28.67
2018-01-15T09:22:02.611Z,24.97
2018-01-15T09:24:32.657Z,30.63
2018-01-15T09:27:01.944Z,25.50
2018-01-15T09:29:31.991Z,24.50
2018-01-15T09:32:01.274Z,21.27
2018-01-15T09:34:30.623Z,25.47
2018-01-15T09:36:59.899Z,25.83
2018-01-15T09:39:29.396Z,21.07
2018-01-15T09:41:58.661Z,25.73
2018-01-15T09:44:29.024Z,21.97
2018-01-15T09:46:58.428Z,24.73
2018-01-15T09:49:27.730Z,22.23
2018-01-15T09:51:56.993Z,25.87
2018-01-15T09:54:27.038Z,23.23
2018-01-15T09:56:56.306Z,24.87
2018-01-15T09:59:26.344Z,22.80
2018-01-15T10:01:56.264Z,24.87
2018-01-15T10:04:25.558Z,24.63
2018-01-15T10:06:54.819Z,22.00
2018-01-15T10:09:24.122Z,20.30
2018-01-15T10:11:53.915Z,19.77
2018-01-15T10:14:23.260Z,23.47
2018-01-15T10:16:53.311Z,20.33
2018-01-15T10:19:22.400Z,21.13
2018-01-15T10:21:51.661Z,24.43
2018-01-15T10:24:21.110Z,19.70
2018-01-15T10:26:50.385Z,23.03
2018-01-15T10:29:20.633Z,20.00
2018-01-15T10:31:50.152Z,18.10
2018-01-15T10:34:19.420Z,19.60
2018-01-15T10:36:48.854Z,17.83
2018-01-15T10:39:18.328Z,19.70
2018-01-15T10:41:47.861Z,19.67
2018-01-15T10:44:17.158Z,21.53
2018-01-15T10:46:46.786Z,19.17
2018-01-15T10:49:16.064Z,17.87
2018-01-15T10:51:45.482Z,19.87
2018-01-15T10:54:14.750Z,18.60
2018-01-15T10:56:44.026Z,20.90
2018-01-15T10:59:14.073Z,23.23
2018-01-15T11:01:43.389Z,21.67
2018-01-15T11:04:12.668Z,20.50
2018-01-15T11:06:42.706Z,19.63
2018-01-15T11:09:12.108Z,19.70
2018-01-15T11:11:41.496Z,20.37
2018-01-15T11:14:10.792Z,20.90
2018-01-15T11:16:40.226Z,19.80
2018-01-15T11:19:09.494Z,24.33
2018-01-15T11:21:39.521Z,21.13
2018-01-15T11:24:08.833Z,17.83
2018-01-15T11:26:41.892Z,18.17
2018-01-15T11:29:12.044Z,19.57
2018-01-15T11:31:41.558Z,20.80
2018-01-15T11:34:10.946Z,19.67
2018-01-15T11:36:40.208Z,22.23
2018-01-15T11:39:09.481Z,19.10
2018-01-15T11:41:38.766Z,22.07
2018-01-15T11:44:08.059Z,21.90
2018-01-15T11:46:37.352Z,21.80
2018-01-15T11:49:06.825Z,23.90
2018-01-15T11:51:36.964Z,22.17
2018-01-15T11:54:06.296Z,19.83
2018-01-15T11:56:35.643Z,21.80
2018-01-15T11:59:05.703Z,22.63
2018-01-15T12:01:34.974Z,21.73
2018-01-15T12:04:05.229Z,20.47
2018-01-15T12:06:34.502Z,20.37
2018-01-15T12:09:04.298Z,21.87
2018-01-15T12:11:34.341Z,22.60
2018-01-15T12:14:03.613Z,21.47
2018-01-15T12:16:33.677Z,21.03
2018-01-15T12:19:02.976Z,21.07
2018-01-15T12:21:32.250Z,20.97
2018-01-15T12:24:02.290Z,20.30
2018-01-15T12:26:31.575Z,16.90
2018-01-15T12:29:00.853Z,18.33
2018-01-15T12:31:30.911Z,19.67
2018-01-15T12:34:00.206Z,19.37
2018-01-15T12:36:29.750Z,17.70
2018-01-15T12:38:59.010Z,18.67
2018-01-15T12:41:28.298Z,16.97
2018-01-15T12:43:58.316Z,13.83
2018-01-15T12:46:27.589Z,12.77
2018-01-15T12:48:58.585Z,14.73
2018-01-15T12:51:27.859Z,11.70
2018-01-15T12:53:57.120Z,11.20
2018-01-15T12:56:26.502Z,9.43
2018-01-15T12:58:55.781Z,10.17
2018-01-15T13:01:25.068Z,9.13
2018-01-15T13:03:54.325Z,10.87
2018-01-15T13:06:22.855Z,10.03
2018-01-15T13:09:02.421Z,9.57
2018-01-15T13:11:31.760Z,7.43
2018-01-15T13:14:01.190Z,10.03
2018-01-15T13:16:30.441Z,12.13
2018-01-15T13:18:59.752Z,9.83
2018-01-15T13:21:29.018Z,11.03
2018-01-15T13:23:58.288Z,8.97
2018-01-15T13:26:28.312Z,9.87
2018-01-15T13:28:57.565Z,6.83
2018-01-15T13:31:26.902Z,8.33
2018-01-15T13:33:57.054Z,8.70
2018-01-15T13:36:26.312Z,9.40
2018-01-15T13:38:56.339Z,8.40
2018-01-15T13:41:26.373Z,8.33
2018-01-15T13:43:56.607Z,7.63
2018-01-15T13:46:25.882Z,6.00
2018-01-15T13:48:55.909Z,7.50
2018-01-15T13:51:25.171Z,11.23
2018-01-15T13:53:54.428Z,12.40
2018-01-15T13:56:23.692Z,9.70
2018-01-15T13:58:53.775Z,9.67
2018-01-15T14:01:23.265Z,6.70
2018-01-15T14:03:52.522Z,7.80
2018-01-15T14:06:22.764Z,9.23
2018-01-15T14:08:52.047Z,10.93
2018-01-15T14:11:22.407Z,9.03
2018-01-15T14:13:51.658Z,9.03
2018-01-15T14:16:22.175Z,9.90
2018-01-15T14:18:51.532Z,8.37
2018-01-15T14:21:20.790Z,9.47
2018-01-15T14:23:50.945Z,8.73
2018-01-15T14:26:20.389Z,6.27
2018-01-15T14:28:49.660Z,11.40
2018-01-15T14:31:18.945Z,6.20
2018-01-15T14:33:48.379Z,8.33
2018-01-15T14:36:17.770Z,8.13
2018-01-15T14:38:47.057Z,8.53
2018-01-15T14:41:16.379Z,9.80
2018-01-15T14:43:46.073Z,9.70
2018-01-15T14:46:15.406Z,9.00
2018-01-15T14:48:44.673Z,8.80
2018-01-15T14:51:13.919Z,7.53
2018-01-15T14:53:43.943Z,8.23
2018-01-15T14:56:13.381Z,7.47
2018-01-15T14:58:42.656Z,8.27
2018-01-15T15:01:12.680Z,7.37
2018-01-15T15:03:42.835Z,5.83
2018-01-15T15:06:12.441Z,10.13
2018-01-15T15:08:41.741Z,7.73
2018-01-15T15:11:11.021Z,7.47
2018-01-15T15:13:40.310Z,6.67
2018-01-15T15:16:10.485Z,5.90
2018-01-15T15:18:39.899Z,7.47
2018-01-15T15:21:09.362Z,6.77
2018-01-15T15:23:38.786Z,7.53
2018-01-15T15:26:07.935Z,6.53
2018-01-15T15:28:38.128Z,6.17
2018-01-15T15:31:07.463Z,4.87
2018-01-15T15:33:37.548Z,5.67
2018-01-15T15:36:07.346Z,5.93
2018-01-15T15:38:36.730Z,6.57
2018-01-15T15:41:06.051Z,4.87
2018-01-15T15:43:35.435Z,6.00
2018-01-15T15:46:04.857Z,5.67
2018-01-15T15:48:34.121Z,6.87
2018-01-15T15:51:04.857Z,4.20
2018-01-15T15:53:34.378Z,5.60
2018-01-15T15:56:03.856Z,7.50
2018-01-15T15:58:33.222Z,5.30
2018-01-15T16:01:02.595Z,3.90
2018-01-15T16:03:32.131Z,6.27
2018-01-15T16:06:01.787Z,4.27
2018-01-15T16:08:31.112Z,3.40
2018-01-15T16:11:00.514Z,3.57
2018-01-15T16:13:29.909Z,5.30
2018-01-15T16:15:59.391Z,5.77
2018-01-15T16:18:29.553Z,3.40
2018-01-15T16:20:58.817Z,3.97
2018-01-15T16:23:28.444Z,4.97
2018-01-15T16:25:57.962Z,2.70
2018-01-15T16:28:27.572Z,3.80
2018-01-15T16:30:56.981Z,3.17
2018-01-15T16:33:26.419Z,4.03
2018-01-15T16:35:55.692Z,6.80
2018-01-15T16:38:24.950Z,4.50
2018-01-15T16:40:54.226Z,6.50
2018-01-15T16:43:24.263Z,6.37
2018-01-15T16:45:53.560Z,4.77
2018-01-15T16:48:23.045Z,2.50
2018-01-15T16:50:53.061Z,6.73
2018-01-15T16:53:22.530Z,4.93
2018-01-15T16:55:51.953Z,6.10
2018-01-15T16:58:21.531Z,5.33
2018-01-15T17:00:51.625Z,4.97
2018-01-15T17:03:21.214Z,6.17
2018-01-15T17:05:51.225Z,3.17
2018-01-15T17:08:21.252Z,4.43
2018-01-15T17:10:51.276Z,3.17
2018-01-15T17:13:21.300Z,5.37
2018-01-15T17:15:50.557Z,2.77
2018-01-15T17:18:20.027Z,2.93
2018-01-15T17:20:49.339Z,3.67
2018-01-15T17:23:18.633Z,4.07
2018-01-15T17:25:47.900Z,2.50
2018-01-15T17:28:17.934Z,5.57
2018-01-15T17:30:47.358Z,3.57
2018-01-15T17:33:16.864Z,6.23
2018-01-15T17:35:46.154Z,3.13
2018-01-15T17:38:15.548Z,3.37
2018-01-15T17:40:45.055Z,4.27
2018-01-15T17:43:14.524Z,5.23
2018-01-15T17:45:44.957Z,8.90
2018-01-15T17:48:15.036Z,8.93
2018-01-15T17:50:44.535Z,3.57
2018-01-15T17:53:13.920Z,7.60
2018-01-15T17:55:43.237Z,10.30
2018-01-15T17:58:13.160Z,18.93
2018-01-15T18:00:42.445Z,2.60
2018-01-15T18:03:11.737Z,9.30
2018-01-15T18:05:41.427Z,12.53
2018-01-15T18:08:11.081Z,12.73
2018-01-15T18:10:40.689Z,3.37
2018-01-15T18:13:10.009Z,5.93
2018-01-15T18:15:40.812Z,8.97
2018-01-15T18:18:10.126Z,10.73
2018-01-15T18:20:39.413Z,3.03
2018-01-15T18:23:09.658Z,16.40
2018-01-15T18:25:38.930Z,7.53
2018-01-15T18:28:08.331Z,11.70
2018-01-15T18:30:37.945Z,17.63
2018-01-15T18:33:07.394Z,11.07
2018-01-15T18:35:38.011Z,16.70
2018-01-15T18:38:07.302Z,16.80
2018-01-15T18:40:36.964Z,14.37
2018-01-15T18:43:06.707Z,7.03
2018-01-15T18:45:36.064Z,14.30
2018-01-15T18:48:06.994Z,16.07
2018-01-15T18:50:37.270Z,15.67
2018-01-15T18:53:06.865Z,5.10
2018-01-15T18:55:36.142Z,7.13
2018-01-15T18:58:06.179Z,15.07
2018-01-15T19:00:35.689Z,10.50
2018-01-15T19:03:05.015Z,8.97
2018-01-15T19:05:34.290Z,12.17
2018-01-15T19:08:04.040Z,5.00
2018-01-15T19:10:33.361Z,10.23
2018-01-15T19:13:02.669Z,15.73
2018-01-15T19:15:33.556Z,16.97
2018-01-15T19:18:02.969Z,7.77
2018-01-15T19:20:32.229Z,9.80
2018-01-15T19:23:01.783Z,22.20
2018-01-15T19:25:31.142Z,8.37
2018-01-15T19:28:00.811Z,10.80
2018-01-15T19:30:30.913Z,11.30
2018-01-15T19:33:00.320Z,9.73
2018-01-15T19:35:34.385Z,11.63
2018-01-15T19:38:03.670Z,21.10
2018-01-15T19:40:34.415Z,18.23
2018-01-15T19:43:04.272Z,17.20
2018-01-15T19:45:39.600Z,14.77
2018-01-15T19:48:14.318Z,18.50
2018-01-15T19:50:48.957Z,13.17
2018-01-15T19:53:26.693Z,13.27
2018-01-15T20:09:33.126Z,11.30
2018-01-15T20:12:02.917Z,15.40
2018-01-15T20:14:32.528Z,7.07
2018-01-15T20:17:02.048Z,9.17
2018-01-15T20:19:32.621Z,19.00
2018-01-15T20:22:05.256Z,13.43
2018-01-15T20:24:35.935Z,14.67
2018-01-15T20:27:05.426Z,15.37
2018-01-15T20:29:35.376Z,21.77
2018-01-15T20:32:05.843Z,20.77
2018-01-15T20:34:35.485Z,23.97
2018-01-15T20:37:05.817Z,17.40
2018-01-15T20:39:35.119Z,18.77
2018-01-15T20:42:04.404Z,20.93
2018-01-15T20:44:33.718Z,22.07
2018-01-15T20:47:04.133Z,15.20
2018-01-15T20:49:33.941Z,11.07
2018-01-15T20:52:03.539Z,20.70
2018-01-15T20:54:33.099Z,29.20
2018-01-15T20:57:02.446Z,12.47
2018-01-15T20:59:31.975Z,16.57
2018-01-15T21:02:01.346Z,12.47
2018-01-15T21:04:30.787Z,18.43
2018-01-15T21:07:01.034Z,22.30
2018-01-15T21:09:30.305Z,26.13
2018-01-15T21:11:59.811Z,18.20
2018-01-15T21:14:29.338Z,6.20
2018-01-15T21:16:58.932Z,17.20
2018-01-15T21:19:28.320Z,22.73
2018-01-15T21:21:57.584Z,15.23
2018-01-15T21:24:27.854Z,23.57
2018-01-15T21:26:57.254Z,15.80
2018-01-15T21:29:26.715Z,16.53
2018-01-15T21:31:56.833Z,17.47
2018-01-15T21:34:26.870Z,21.93
2018-01-15T21:36:59.364Z,15.40
2018-01-15T21:39:29.074Z,13.67
2018-01-15T21:41:58.498Z,10.67
2018-01-15T21:44:27.765Z,11.60
2018-01-15T21:46:57.047Z,6.77
2018-01-15T21:49:27.088Z,12.30
2018-01-15T21:51:56.574Z,12.03
2018-01-15T21:54:26.810Z,6.07
2018-01-15T21:56:56.860Z,16.27
2018-01-15T21:59:27.674Z,21.77
2018-01-15T22:01:57.786Z,2.87
2018-01-15T22:04:27.981Z,3.37
2018-01-15T22:06:58.377Z,22.50
2018-01-15T22:09:27.619Z,2.67
2018-01-15T22:11:56.963Z,3.80
2018-01-15T22:14:26.426Z,3.23
2018-01-15T22:16:56.287Z,4.37
2018-01-15T22:19:25.763Z,2.63
2018-01-15T22:21:55.818Z,1.60
2018-01-15T22:24:25.080Z,3.43
2018-01-15T22:26:55.944Z,2.60
2018-01-15T22:29:25.214Z,2.37
2018-01-15T22:31:55.271Z,1.60
2018-01-15T22:34:24.869Z,2.33
2018-01-15T22:36:54.334Z,1.70
2018-01-15T22:39:23.811Z,2.07
2018-01-15T22:41:54.877Z,3.77
2018-01-15T22:44:24.371Z,1.47
2018-01-15T22:46:55.170Z,1.97
2018-01-15T22:49:24.420Z,3.73
2018-01-15T22:51:53.720Z,1.97
2018-01-15T22:54:23.175Z,1.87
2018-01-15T22:56:52.727Z,1.97
2018-01-15T22:59:22.763Z,2.37
2018-01-15T23:01:52.809Z,3.20
2018-01-15T23:04:22.073Z,2.20
2018-01-15T23:06:52.117Z,2.30
2018-01-15T23:09:21.391Z,3.40
2018-01-15T23:11:50.761Z,2.47
2018-01-15T23:14:20.109Z,4.60
2018-01-15T23:16:50.398Z,5.93
2018-01-15T23:19:19.691Z,4.43
2018-01-15T23:21:49.266Z,3.53
2018-01-15T23:24:19.961Z,3.50
2018-01-15T23:26:50.578Z,2.13
2018-01-15T23:29:19.846Z,1.70
2018-01-15T23:31:49.119Z,7.17
2018-01-15T23:34:18.453Z,2.50
2018-01-15T23:36:47.721Z,4.13
2018-01-15T23:39:17.307Z,5.47
2018-01-15T23:41:47.532Z,4.50
2018-01-15T23:44:16.966Z,3.70
2018-01-15T23:46:46.251Z,2.87
2018-01-15T23:49:15.501Z,3.90
2018-01-15T23:51:44.803Z,2.97
2018-01-15T23:54:31.680Z,3.03
2018-01-15T23:57:00.752Z,1.70
2018-01-15T23:59:30.012Z,2.20
